Time;durP1;ratioP1;P1;durP2;ratioP2;P2;SDS_P1;SDS_P2;PMS_P1;PMS_P2;Temp;Humidity;BMP_temperature;BMP_pressure;BME280_temperature;BME280_humidity;BME280_pressure;Samples;Min_cycle;Max_cycle;Signal;HPM_P1;HPM_P2
2021/07/11 00:01:17;;;;;;;21.70;19.60;;;20.20;92.10;;;;;;5056526;28;20431;-56
2021/07/11 00:03:43;;;;;;;20.02;17.95;;;20.20;92.10;;;;;;5056483;28;20021;-56
2021/07/11 00:06:08;;;;;;;21.35;19.33;;;20.20;92.10;;;;;;5055813;28;20115;-56
2021/07/11 00:08:34;;;;;;;20.25;18.45;;;20.20;92.10;;;;;;5055299;28;20037;-52
2021/07/11 00:10:59;;;;;;;19.60;17.90;;;20.20;92.10;;;;;;5055948;28;20025;-56
2021/07/11 00:13:25;;;;;;;20.60;18.80;;;20.20;92.10;;;;;;5056019;28;20040;-58
2021/07/11 00:15:51;;;;;;;21.02;18.85;;;20.20;92.20;;;;;;5055686;28;20477;-57
2021/07/11 00:18:16;;;;;;;20.63;18.60;;;20.20;92.20;;;;;;5054605;28;20032;-53
2021/07/11 00:20:42;;;;;;;19.98;18.15;;;20.20;92.10;;;;;;5035446;28;20030;-57
2021/07/11 00:23:07;;;;;;;20.25;18.48;;;20.10;92.20;;;;;;5049856;28;20027;-58
2021/07/11 00:25:33;;;;;;;18.92;17.23;;;20.10;92.30;;;;;;5018901;28;20120;-53
2021/07/11 00:27:59;;;;;;;20.25;18.20;;;20.10;92.40;;;;;;5035794;28;20400;-53
2021/07/11 00:30:26;;;;;;;19.48;17.70;;;20.10;92.50;;;;;;5035516;28;20033;-51
2021/07/11 00:32:52;;;;;;;20.48;18.67;;;20.00;92.40;;;;;;5035818;28;20035;-49
2021/07/11 00:35:18;;;;;;;18.90;17.15;;;20.00;92.50;;;;;;5035502;28;20052;-54
2021/07/11 00:37:44;;;;;;;19.48;17.77;;;20.00;92.60;;;;;;5017589;28;20480;-55
2021/07/11 00:40:10;;;;;;;20.85;18.85;;;20.00;92.60;;;;;;5035740;28;20080;-59
2021/07/11 00:42:36;;;;;;;19.15;17.42;;;20.00;92.70;;;;;;5035509;28;20029;-59
2021/07/11 00:45:03;;;;;;;19.95;17.92;;;19.90;92.60;;;;;;5049654;28;20207;-58
2021/07/11 00:47:29;;;;;;;17.70;16.20;;;19.90;92.70;;;;;;5054491;28;20036;-52
2021/07/11 00:49:55;;;;;;;19.05;17.35;;;19.90;92.70;;;;;;5054454;28;20142;-54
2021/07/11 00:52:20;;;;;;;18.92;17.23;;;19.90;92.70;;;;;;5037261;28;20021;-55
2021/07/11 00:54:46;;;;;;;20.10;18.15;;;19.90;92.80;;;;;;5054868;28;20036;-58
2021/07/11 00:57:12;;;;;;;18.85;17.15;;;19.90;92.80;;;;;;5054727;28;20048;-50
2021/07/11 00:59:38;;;;;;;20.58;18.60;;;19.80;92.90;;;;;;5054577;28;20024;-52
2021/07/11 01:02:33;;;;;;;19.60;17.73;;;19.80;93.00;;;;;;5054573;28;20057;-52
2021/07/11 01:05:09;;;;;;;19.40;17.70;;;19.70;93.10;;;;;;5054740;28;20206;-57
2021/07/11 01:07:49;;;;;;;20.15;18.25;;;19.70;93.20;;;;;;5054323;28;20442;-55
2021/07/11 01:10:40;;;;;;;18.73;16.92;;;19.70;93.20;;;;;;5054440;28;20056;-55
2021/07/11 01:13:09;;;;;;;19.08;17.27;;;19.70;93.30;;;;;;5054741;28;20028;-53
2021/07/11 01:15:37;;;;;;;19.83;17.98;;;19.70;93.30;;;;;;5054430;28;20057;-54
2021/07/11 01:18:06;;;;;;;20.10;18.10;;;19.60;93.40;;;;;;5054136;28;20033;-57
2021/07/11 01:21:06;;;;;;;20.50;18.52;;;19.60;93.50;;;;;;5034480;28;20137;-54
2021/07/11 01:23:50;;;;;;;19.77;18.05;;;19.50;93.60;;;;;;5034538;28;20044;-56
2021/07/11 01:26:17;;;;;;;21.58;19.58;;;19.50;93.50;;;;;;5034042;28;20474;-56
2021/07/11 01:28:47;;;;;;;19.58;17.83;;;19.40;93.70;;;;;;5034821;28;20120;-56
2021/07/11 01:31:14;;;;;;;20.35;18.35;;;19.30;93.90;;;;;;5035144;28;20413;-55
2021/07/11 01:33:41;;;;;;;20.10;18.20;;;19.30;94.10;;;;;;5034553;28;20040;-55
2021/07/11 01:36:08;;;;;;;19.80;18.00;;;19.40;94.20;;;;;;5034031;28;20369;-57
2021/07/11 01:38:35;;;;;;;18.75;17.15;;;19.40;94.00;;;;;;5034553;28;20462;-56
2021/07/11 01:41:03;;;;;;;20.35;18.55;;;19.50;93.90;;;;;;5034146;28;20445;-55
2021/07/11 01:43:29;;;;;;;19.05;17.35;;;19.50;93.90;;;;;;5035054;28;20029;-57
2021/07/11 01:45:55;;;;;;;21.35;18.65;;;19.50;93.80;;;;;;5053683;28;20112;-53
2021/07/11 01:48:22;;;;;;;19.92;18.25;;;19.50;93.90;;;;;;5053340;28;20051;-58
2021/07/11 01:50:53;;;;;;;19.75;17.92;;;19.40;93.90;;;;;;5053602;28;20041;-55
2021/07/11 01:53:27;;;;;;;19.65;17.95;;;19.30;94.10;;;;;;5054064;28;20057;-53
2021/07/11 01:55:53;;;;;;;;;;;19.30;94.00;;;;;;5054641;28;20025;-54
2021/07/11 01:58:19;;;;;;;19.95;18.08;;;19.20;94.00;;;;;;5054159;28;20324;-57
2021/07/11 02:00:45;;;;;;;20.95;19.23;;;19.10;94.30;;;;;;5053926;28;20062;-52
2021/07/11 02:03:25;;;;;;;20.55;18.75;;;19.10;94.30;;;;;;5052873;28;20443;-56
2021/07/11 02:05:52;;;;;;;21.45;19.50;;;19.10;94.20;;;;;;5052066;28;20457;-59
2021/07/11 02:08:18;;;;;;;20.00;18.20;;;19.10;94.30;;;;;;5052541;28;20036;-59
2021/07/11 02:10:46;;;;;;;21.42;19.52;;;19.10;94.40;;;;;;5044905;28;20060;-57
2021/07/11 02:13:17;;;;;;;21.80;19.65;;;19.00;94.70;;;;;;5043912;28;20671;-50
2021/07/11 02:15:47;;;;;;;20.23;18.35;;;19.10;94.50;;;;;;5033032;28;20736;-53
2021/07/11 02:18:15;;;;;;;22.23;19.88;;;19.00;94.50;;;;;;5050205;28;20056;-57
2021/07/11 02:20:42;;;;;;;21.90;19.67;;;19.00;94.60;;;;;;5033081;28;20025;-57
2021/07/11 02:23:09;;;;;;;21.20;19.00;;;19.00;94.50;;;;;;5047595;28;20035;-56
2021/07/11 02:25:34;;;;;;;20.70;18.60;;;18.90;94.80;;;;;;5034084;28;20029;-51
2021/07/11 02:28:01;;;;;;;21.38;19.38;;;18.90;95.00;;;;;;5032686;28;20026;-53
2021/07/11 02:30:40;;;;;;;20.80;18.88;;;18.80;95.00;;;;;;5051374;28;20048;-56
2021/07/11 02:33:11;;;;;;;21.17;19.25;;;18.80;95.10;;;;;;5052690;28;20029;-54
2021/07/11 02:35:43;;;;;;;20.70;18.85;;;18.80;95.10;;;;;;5053943;28;20188;-58
2021/07/11 02:38:13;;;;;;;20.63;18.65;;;18.90;95.00;;;;;;5052692;28;20029;-56
2021/07/11 02:40:39;;;;;;;21.70;19.60;;;18.90;95.00;;;;;;5052907;28;20445;-54
2021/07/11 02:43:10;;;;;;;21.20;19.25;;;19.00;94.90;;;;;;5052851;28;20041;-55
2021/07/11 02:45:37;;;;;;;21.35;19.48;;;18.90;95.20;;;;;;5052513;28;20033;-54
2021/07/11 02:48:06;;;;;;;19.88;18.05;;;18.90;94.90;;;;;;5052336;28;20029;-57
2021/07/11 02:50:33;;;;;;;21.30;19.38;;;18.90;95.10;;;;;;5052261;28;20048;-54
2021/07/11 02:53:01;;;;;;;21.48;19.27;;;18.90;95.00;;;;;;5040309;28;20072;-54
2021/07/11 02:55:30;;;;;;;20.15;18.30;;;18.90;95.00;;;;;;5030551;28;20440;-56
2021/07/11 02:58:00;;;;;;;21.63;19.63;;;18.90;95.10;;;;;;5033966;28;20507;-57
2021/07/11 03:00:25;;;;;;;21.48;19.58;;;18.90;95.10;;;;;;5031654;28;20048;-57
2021/07/11 03:02:53;;;;;;;20.63;18.73;;;18.80;95.00;;;;;;5031610;28;20037;-52
2021/07/11 03:05:22;;;;;;;20.48;18.67;;;18.80;95.20;;;;;;5033324;28;20033;-59
2021/07/11 03:07:48;;;;;;;20.55;18.75;;;18.80;95.30;;;;;;5031625;28;20108;-57
2021/07/11 03:10:15;;;;;;;21.42;19.52;;;18.80;95.20;;;;;;5031144;28;20111;-55
2021/07/11 03:12:41;;;;;;;20.13;18.30;;;18.70;95.30;;;;;;5013850;28;20032;-55
2021/07/11 03:15:08;;;;;;;22.40;20.30;;;18.70;95.40;;;;;;5019630;28;20037;-52
2021/07/11 03:17:34;;;;;;;20.83;18.83;;;18.80;95.00;;;;;;5032317;28;20053;-59
2021/07/11 03:20:03;;;;;;;21.52;19.65;;;18.70;95.20;;;;;;5031939;28;20484;-57
2021/07/11 03:22:30;;;;;;;21.23;19.30;;;18.80;95.10;;;;;;5031748;28;20034;-57
2021/07/11 03:24:58;;;;;;;22.50;20.30;;;18.70;94.80;;;;;;5031774;28;20129;-55
2021/07/11 03:27:28;;;;;;;22.15;19.92;;;18.60;95.10;;;;;;5031532;28;20044;-53
2021/07/11 03:30:02;;;;;;;22.02;20.00;;;18.70;95.30;;;;;;5034708;28;20053;-52
2021/07/11 03:32:41;;;;;;;;;;;18.70;95.20;;;;;;5032287;28;20115;-56
2021/07/11 03:35:08;;;;;;;21.50;19.50;;;18.70;95.30;;;;;;5031804;28;20276;-57
2021/07/11 03:37:39;;;;;;;22.90;20.80;;;18.70;95.30;;;;;;5017613;28;20516;-51
2021/07/11 03:40:06;;;;;;;21.73;19.45;;;18.80;95.10;;;;;;5034534;28;20043;-58
2021/07/11 03:42:37;;;;;;;23.60;21.30;;;18.80;95.10;;;;;;5030326;28;20022;-51
2021/07/11 03:45:03;;;;;;;20.73;18.77;;;18.80;95.20;;;;;;5032326;28;20094;-59
2021/07/11 03:47:41;;;;;;;22.08;19.85;;;18.70;95.40;;;;;;5031180;28;20049;-54
2021/07/11 03:50:09;;;;;;;20.85;19.02;;;18.80;95.50;;;;;;5031491;28;20397;-58
2021/07/11 03:53:01;;;;;;;21.42;19.63;;;18.80;95.60;;;;;;5032466;28;20057;-56
2021/07/11 03:55:28;;;;;;;19.90;18.15;;;18.80;95.50;;;;;;5025041;28;20025;-60
2021/07/11 03:57:54;;;;;;;20.13;18.33;;;18.80;95.50;;;;;;5014560;28;20033;-59
2021/07/11 04:00:21;;;;;;;21.23;19.42;;;18.90;95.50;;;;;;5016118;28;20116;-53
2021/07/11 04:02:49;;;;;;;20.75;18.85;;;19.00;95.30;;;;;;5014507;28;20492;-54
2021/07/11 04:05:17;;;;;;;20.40;18.50;;;19.00;95.20;;;;;;5017448;28;20037;-57
2021/07/11 04:07:45;;;;;;;19.95;18.15;;;19.00;95.20;;;;;;5051807;28;20029;-51
2021/07/11 04:10:12;;;;;;;20.90;18.95;;;19.10;95.20;;;;;;5051693;28;20037;-57
2021/07/11 04:12:38;;;;;;;22.60;20.40;;;19.00;95.40;;;;;;5051833;28;20036;-55
2021/07/11 04:15:04;;;;;;;22.38;20.38;;;19.00;95.00;;;;;;5051682;28;20091;-56
2021/07/11 04:17:32;;;;;;;23.48;21.27;;;18.90;94.90;;;;;;5051417;28;20100;-59
2021/07/11 04:20:00;;;;;;;23.13;20.70;;;18.90;95.00;;;;;;5034368;28;20061;-56
2021/07/11 04:22:27;;;;;;;22.63;20.63;;;18.80;95.10;;;;;;5031057;28;20029;-58
2021/07/11 04:24:54;;;;;;;21.75;19.73;;;18.80;95.00;;;;;;5035420;28;20091;-56
2021/07/11 04:27:21;;;;;;;21.90;19.70;;;18.70;95.00;;;;;;5017102;28;20481;-58
2021/07/11 04:29:50;;;;;;;23.42;21.33;;;18.80;95.00;;;;;;5035870;28;20044;-54
2021/07/11 04:32:16;;;;;;;22.70;20.63;;;18.80;95.30;;;;;;5035245;28;20026;-59
2021/07/11 04:34:42;;;;;;;22.48;20.33;;;18.80;95.30;;;;;;5036280;28;20033;-54
2021/07/11 04:37:07;;;;;;;22.45;20.33;;;18.80;95.30;;;;;;5035181;28;20034;-59
2021/07/11 04:39:34;;;;;;;22.50;20.50;;;18.90;95.30;;;;;;5036371;28;20064;-54
2021/07/11 04:42:00;;;;;;;22.52;20.27;;;18.80;95.20;;;;;;5036101;28;20047;-60
2021/07/11 04:44:27;;;;;;;23.95;21.65;;;18.90;95.20;;;;;;5026199;28;20507;-57
2021/07/11 04:46:53;;;;;;;22.70;20.63;;;18.80;95.20;;;;;;5036382;28;20041;-57
2021/07/11 04:49:19;;;;;;;25.08;22.23;;;18.80;95.20;;;;;;5054927;28;20040;-55
2021/07/11 04:51:44;;;;;;;22.08;20.08;;;18.80;95.10;;;;;;5054820;28;20021;-57
2021/07/11 04:54:10;;;;;;;22.20;20.13;;;18.80;95.30;;;;;;5055168;28;20033;-58
2021/07/11 04:56:36;;;;;;;22.88;20.77;;;18.80;95.50;;;;;;5054545;28;20037;-56
2021/07/11 04:59:03;;;;;;;22.80;20.60;;;18.90;95.60;;;;;;5054947;28;20048;-55
2021/07/11 05:01:28;;;;;;;21.90;19.73;;;18.80;95.50;;;;;;5054945;28;20035;-57
2021/07/11 05:03:54;;;;;;;20.95;18.73;;;18.90;95.20;;;;;;5036971;28;20040;-57
2021/07/11 05:06:20;;;;;;;22.33;20.10;;;19.00;95.00;;;;;;5036262;28;20047;-56
2021/07/11 05:08:46;;;;;;;20.90;19.10;;;19.00;94.70;;;;;;5054657;28;20041;-51
2021/07/11 05:11:12;;;;;;;19.52;17.52;;;19.10;94.60;;;;;;5055122;28;20045;-54
2021/07/11 05:13:38;;;;;;;19.33;17.63;;;19.10;94.50;;;;;;5054606;28;20033;-55
2021/07/11 05:16:04;;;;;;;21.60;19.70;;;19.30;94.40;;;;;;5054334;28;20040;-54
2021/07/11 05:18:29;;;;;;;20.40;18.38;;;19.30;94.20;;;;;;5055397;28;21654;-53
2021/07/11 05:20:55;;;;;;;20.00;18.02;;;19.40;94.10;;;;;;5048520;28;20021;-54
2021/07/11 05:23:21;;;;;;;19.70;17.80;;;19.40;94.00;;;;;;5052837;28;20033;-52
2021/07/11 05:25:46;;;;;;;19.48;17.55;;;19.50;94.00;;;;;;5074582;28;20036;-53
2021/07/11 05:28:13;;;;;;;19.58;17.63;;;19.60;93.80;;;;;;5074180;28;20484;-52
2021/07/11 05:30:39;;;;;;;20.10;18.10;;;19.60;93.70;;;;;;5056195;28;20373;-52
2021/07/11 05:33:05;;;;;;;18.98;17.15;;;19.70;93.60;;;;;;5074275;28;20043;-55
2021/07/11 05:35:31;;;;;;;19.90;18.10;;;19.70;93.50;;;;;;5049836;28;20048;-54
2021/07/11 05:37:56;;;;;;;21.15;19.13;;;19.90;93.40;;;;;;5042517;28;20021;-55
2021/07/11 05:40:22;;;;;;;17.63;15.90;;;19.90;93.00;;;;;;5055149;28;20045;-51
2021/07/11 05:42:49;;;;;;;19.08;17.38;;;19.90;93.20;;;;;;5042798;28;20037;-57
2021/07/11 05:45:14;;;;;;;19.02;17.15;;;20.00;93.10;;;;;;5049373;28;20041;-55
2021/07/11 05:47:40;;;;;;;22.42;19.55;;;20.00;93.10;;;;;;5053914;28;20037;-57
2021/07/11 05:50:07;;;;;;;22.83;18.33;;;20.10;92.80;;;;;;5053993;28;20094;-55
2021/07/11 05:52:33;;;;;;;18.25;16.55;;;20.00;92.80;;;;;;5053975;28;20032;-55
2021/07/11 05:54:59;;;;;;;17.50;16.00;;;20.00;93.00;;;;;;5035953;28;20100;-57
2021/07/11 05:57:26;;;;;;;17.75;16.25;;;20.20;93.00;;;;;;5053861;28;20053;-53
2021/07/11 05:59:51;;;;;;;18.80;17.00;;;20.20;92.70;;;;;;5054608;28;20530;-57
2021/07/11 06:02:17;;;;;;;17.85;16.25;;;20.30;92.60;;;;;;5054326;28;20065;-55
2021/07/11 06:04:43;;;;;;;18.77;17.08;;;20.40;92.40;;;;;;5054335;28;20040;-57
2021/07/11 06:07:09;;;;;;;18.48;16.67;;;20.50;92.00;;;;;;5035447;28;20053;-55
2021/07/11 06:09:35;;;;;;;18.05;16.42;;;20.60;92.20;;;;;;5054333;28;20068;-56
2021/07/11 06:12:00;;;;;;;18.35;16.60;;;20.70;92.30;;;;;;5054484;28;20116;-55
2021/07/11 06:14:26;;;;;;;16.67;15.07;;;20.70;92.10;;;;;;5053843;28;20476;-53
2021/07/11 06:16:51;;;;;;;17.65;15.75;;;20.70;92.10;;;;;;5052988;28;20647;-54
2021/07/11 06:19:17;;;;;;;16.80;15.30;;;20.70;92.00;;;;;;5052781;28;20025;-54
2021/07/11 06:21:43;;;;;;;16.92;15.40;;;20.80;92.30;;;;;;5050589;28;20032;-54
2021/07/11 06:24:09;;;;;;;17.02;15.52;;;20.70;92.10;;;;;;5052541;28;20041;-54
2021/07/11 06:26:35;;;;;;;17.58;15.80;;;20.70;92.20;;;;;;5052615;28;20036;-54
2021/07/11 06:29:00;;;;;;;16.35;14.95;;;20.70;92.20;;;;;;5052892;28;20040;-52
2021/07/11 06:31:27;;;;;;;16.55;14.95;;;20.70;92.20;;;;;;5047321;28;20098;-54
2021/07/11 06:33:52;;;;;;;16.35;14.90;;;20.70;92.30;;;;;;5052992;28;20396;-57
2021/07/11 06:36:18;;;;;;;15.93;14.48;;;20.60;92.40;;;;;;5053210;28;20108;-55
2021/07/11 06:38:43;;;;;;;18.77;16.85;;;20.50;92.40;;;;;;5052900;28;20032;-58
2021/07/11 06:41:10;;;;;;;17.63;15.93;;;20.40;92.50;;;;;;5052772;28;20029;-55
2021/07/11 06:43:35;;;;;;;35.60;29.90;;;20.50;92.60;;;;;;5052908;28;20025;-51
2021/07/11 06:46:01;;;;;;;32.90;27.98;;;20.50;92.70;;;;;;5051396;28;20563;-55
2021/07/11 06:48:27;;;;;;;24.73;21.08;;;20.50;92.80;;;;;;5034254;28;20071;-51
2021/07/11 06:50:52;;;;;;;21.63;19.45;;;20.50;92.80;;;;;;5052721;28;20495;-54
2021/07/11 06:53:18;;;;;;;19.38;17.52;;;20.60;92.80;;;;;;5052658;28;20086;-58
2021/07/11 06:55:43;;;;;;;18.98;17.17;;;20.70;92.70;;;;;;5034601;28;20032;-58
2021/07/11 06:58:09;;;;;;;19.25;17.42;;;20.80;92.50;;;;;;5034903;28;20032;-54
2021/07/11 07:00:35;;;;;;;16.80;15.32;;;20.90;92.20;;;;;;5052189;28;20694;-58
2021/07/11 07:03:01;;;;;;;16.58;14.98;;;21.00;92.20;;;;;;5052225;28;20037;-56
2021/07/11 07:05:27;;;;;;;17.08;15.32;;;21.10;92.20;;;;;;5052491;28;20068;-56
2021/07/11 07:07:52;;;;;;;17.30;15.57;;;21.20;92.10;;;;;;5048755;28;20115;-60
2021/07/11 07:10:19;;;;;;;16.65;14.95;;;21.20;92.10;;;;;;5033086;28;20080;-52
2021/07/11 07:12:45;;;;;;;16.38;14.98;;;21.30;92.00;;;;;;5045944;28;20021;-56
2021/07/11 07:15:12;;;;;;;26.05;21.80;;;21.40;91.90;;;;;;5046960;28;20056;-57
2021/07/11 07:17:38;;;;;;;16.63;15.02;;;21.50;91.80;;;;;;5032433;28;20430;-60
2021/07/11 07:20:06;;;;;;;17.23;15.55;;;21.70;91.30;;;;;;5015333;28;20485;-57
2021/07/11 07:22:36;;;;;;;15.90;14.38;;;21.80;91.20;;;;;;5031292;28;20060;-59
2021/07/11 07:25:06;;;;;;;16.50;14.93;;;21.90;90.90;;;;;;5032671;28;20033;-53
2021/07/11 07:27:32;;;;;;;14.82;13.52;;;22.00;90.70;;;;;;5033104;28;20041;-57
2021/07/11 07:29:58;;;;;;;16.10;14.50;;;22.10;90.60;;;;;;5052245;28;20059;-54
2021/07/11 07:32:23;;;;;;;15.63;13.85;;;22.20;90.60;;;;;;5052279;28;20036;-56
2021/07/11 07:34:49;;;;;;;14.05;12.75;;;22.20;90.60;;;;;;5051986;28;20033;-55
2021/07/11 07:37:14;;;;;;;14.50;13.10;;;22.30;90.50;;;;;;5051989;28;20033;-57
2021/07/11 07:39:40;;;;;;;19.38;16.17;;;22.40;90.40;;;;;;5034388;28;20519;-56
2021/07/11 07:42:06;;;;;;;15.85;14.15;;;22.40;90.30;;;;;;5053452;28;20029;-57
2021/07/11 07:44:33;;;;;;;18.95;16.23;;;22.40;90.40;;;;;;5033977;28;20033;-59
2021/07/11 07:46:59;;;;;;;16.08;14.20;;;22.50;90.20;;;;;;5034208;28;20037;-56
2021/07/11 07:49:24;;;;;;;15.27;13.75;;;22.60;90.00;;;;;;5052003;28;20025;-58
2021/07/11 07:51:50;;;;;;;15.30;11.93;;;22.70;89.90;;;;;;5035217;28;20029;-54
2021/07/11 07:54:16;;;;;;;13.10;11.80;;;22.80;89.60;;;;;;5031655;28;20030;-59
2021/07/11 07:56:41;;;;;;;13.45;12.18;;;22.90;89.40;;;;;;5032228;28;20586;-55
2021/07/11 07:59:07;;;;;;;11.13;10.23;;;23.00;89.40;;;;;;5042807;28;20063;-59
2021/07/11 08:01:33;;;;;;;11.90;10.85;;;23.10;88.70;;;;;;5055495;28;20053;-55
2021/07/11 08:03:59;;;;;;;11.57;10.48;;;23.20;88.50;;;;;;5055451;28;20327;-56
2021/07/11 08:06:25;;;;;;;11.18;10.23;;;23.40;88.30;;;;;;5049835;28;20029;-56
2021/07/11 08:08:51;;;;;;;12.48;10.50;;;23.40;88.20;;;;;;5056475;28;20048;-54
2021/07/11 08:11:16;;;;;;;11.25;9.55;;;23.50;88.10;;;;;;5056000;28;20370;-55
2021/07/11 08:13:42;;;;;;;11.05;9.52;;;23.60;87.80;;;;;;5056732;28;20029;-55
2021/07/11 08:16:08;;;;;;;12.73;9.55;;;23.70;87.50;;;;;;5055685;28;20029;-57
2021/07/11 08:18:35;;;;;;;10.07;9.07;;;23.70;87.10;;;;;;5037458;28;20392;-56
2021/07/11 08:21:01;;;;;;;9.55;8.70;;;23.70;87.30;;;;;;5019755;28;20041;-55
2021/07/11 08:23:26;;;;;;;9.88;7.50;;;23.60;85.60;;;;;;5058231;28;20036;-54
2021/07/11 08:25:52;;;;;;;10.77;8.63;;;23.60;84.90;;;;;;5076884;28;20533;-54
2021/07/11 08:28:18;;;;;;;8.02;7.30;;;23.60;84.30;;;;;;5075993;28;20029;-59
2021/07/11 08:30:43;;;;;;;8.60;7.80;;;23.60;84.20;;;;;;5076405;28;20494;-53
2021/07/11 08:33:09;;;;;;;7.53;6.82;;;23.80;83.80;;;;;;5076346;28;20024;-57
2021/07/11 08:35:35;;;;;;;8.27;7.47;;;23.90;83.40;;;;;;5076347;28;20025;-56
2021/07/11 08:38:00;;;;;;;7.88;7.15;;;24.00;82.90;;;;;;5058236;28;20107;-57
2021/07/11 08:40:26;;;;;;;10.88;9.80;;;24.10;83.60;;;;;;5059029;28;20036;-59
2021/07/11 08:42:52;;;;;;;9.32;8.52;;;24.20;82.80;;;;;;5071007;28;20025;-57
2021/07/11 08:45:18;;;;;;;9.13;7.53;;;24.30;82.50;;;;;;5057467;28;20052;-60
2021/07/11 08:47:45;;;;;;;8.15;7.35;;;24.40;82.00;;;;;;5057705;28;20024;-57
2021/07/11 08:50:13;;;;;;;10.95;8.43;;;24.50;82.00;;;;;;5046632;28;20129;-58
2021/07/11 08:52:39;;;;;;;8.35;7.50;;;24.60;81.80;;;;;;5039884;28;20075;-56
2021/07/11 08:55:24;;;;;;;10.85;9.85;;;24.40;81.70;;;;;;5048383;28;20030;-57
2021/07/11 08:57:50;;;;;;;;;;;24.50;81.50;;;;;;5038006;28;20052;-57
2021/07/11 09:00:18;;;;;;;8.52;7.65;;;24.50;81.50;;;;;;5038132;28;20400;-57
2021/07/11 09:02:44;;;;;;;7.90;7.20;;;24.50;81.50;;;;;;5037251;28;20401;-54
2021/07/11 09:05:25;;;;;;;7.88;7.13;;;24.60;81.80;;;;;;5040359;28;20035;-54
2021/07/11 09:07:58;;;;;;;8.10;7.30;;;24.60;81.30;;;;;;5055886;28;20025;-59
2021/07/11 09:10:30;;;;;;;8.02;7.03;;;24.60;81.50;;;;;;5054794;28;20903;-53
2021/07/11 09:12:56;;;;;;;8.35;7.47;;;24.70;81.50;;;;;;5054424;28;20116;-54
2021/07/11 09:15:33;;;;;;;8.68;7.50;;;24.80;81.30;;;;;;5054415;28;20112;-55
2021/07/11 09:17:59;;;;;;;7.50;6.80;;;25.00;81.30;;;;;;5054136;28;20037;-55
2021/07/11 09:20:24;;;;;;;7.65;6.95;;;25.20;81.20;;;;;;5035824;28;20037;-54
2021/07/11 09:23:01;;;;;;;15.18;13.77;;;25.20;80.60;;;;;;5043598;28;20043;-56
2021/07/11 09:25:28;;;;;;;9.90;9.07;;;25.20;80.10;;;;;;5005287;28;20035;-53
2021/07/11 09:27:54;;;;;;;9.82;8.88;;;25.00;79.80;;;;;;5053545;28;20033;-55
2021/07/11 09:30:20;;;;;;;11.60;10.45;;;24.90;80.50;;;;;;5054240;28;20041;-53
2021/07/11 09:32:49;;;;;;;8.85;7.45;;;24.90;80.70;;;;;;5036530;28;20503;-58
2021/07/11 09:35:17;;;;;;;8.35;7.30;;;24.80;80.90;;;;;;5036002;28;20523;-52
2021/07/11 09:37:53;;;;;;;8.88;7.53;;;24.80;81.10;;;;;;5053759;28;20029;-57
2021/07/11 09:40:24;;;;;;;7.95;7.13;;;24.80;80.70;;;;;;5054108;28;20514;-54
2021/07/11 09:42:54;;;;;;;8.70;7.70;;;24.70;81.70;;;;;;5054023;28;20054;-57
2021/07/11 09:45:30;;;;;;;7.63;7.03;;;24.70;81.10;;;;;;5035743;28;20119;-54
2021/07/11 09:48:03;;;;;;;15.75;13.48;;;24.70;81.60;;;;;;5054418;28;20383;-56
2021/07/11 09:50:28;;;;;;;8.48;7.47;;;25.00;81.00;;;;;;5053337;28;20044;-51
2021/07/11 09:52:56;;;;;;;9.32;7.70;;;25.10;80.10;;;;;;5044733;28;20041;-59
2021/07/11 09:55:25;;;;;;;9.85;7.43;;;25.00;80.00;;;;;;5049604;28;20071;-55
2021/07/11 09:57:53;;;;;;;7.95;7.15;;;25.00;80.50;;;;;;5044717;28;20042;-57
2021/07/11 10:00:25;;;;;;;14.35;12.75;;;25.10;80.80;;;;;;5039988;28;20025;-56
2021/07/11 10:02:59;;;;;;;9.82;8.90;;;25.20;80.90;;;;;;5053964;28;20029;-56
2021/07/11 10:05:26;;;;;;;9.30;8.40;;;25.30;81.20;;;;;;5048694;28;20040;-59
2021/07/11 10:07:52;;;;;;;9.15;7.63;;;25.40;80.30;;;;;;5033926;28;20558;-56
2021/07/11 10:10:21;;;;;;;8.35;7.57;;;25.40;79.90;;;;;;5033637;28;20029;-57
2021/07/11 10:12:47;;;;;;;7.90;7.10;;;25.50;80.60;;;;;;5033095;28;20100;-56
2021/07/11 10:15:19;;;;;;;7.60;6.90;;;25.60;80.40;;;;;;5033232;28;20041;-55
2021/07/11 10:18:00;;;;;;;8.15;7.30;;;25.70;79.80;;;;;;5033303;28;20037;-57
2021/07/11 10:20:49;;;;;;;8.30;7.60;;;25.90;79.00;;;;;;5033341;28;20030;-56
2021/07/11 10:23:29;;;;;;;10.07;7.57;;;25.70;79.50;;;;;;5050422;28;20473;-55
2021/07/11 10:26:08;;;;;;;8.80;7.40;;;25.60;80.20;;;;;;5034810;28;20037;-59
2021/07/11 10:28:36;;;;;;;12.07;7.43;;;25.50;80.40;;;;;;5034776;28;20052;-56
2021/07/11 10:31:03;;;;;;;8.23;7.43;;;25.50;80.10;;;;;;5033989;28;20449;-57
2021/07/11 10:33:41;;;;;;;9.32;7.47;;;25.40;80.60;;;;;;5031701;28;20037;-52
2021/07/11 10:36:06;;;;;;;7.72;6.93;;;25.40;80.70;;;;;;5033048;28;20060;-57
2021/07/11 10:38:40;;;;;;;8.27;7.53;;;25.50;80.40;;;;;;5034080;28;20033;-58
2021/07/11 10:41:14;;;;;;;8.43;7.17;;;25.50;80.60;;;;;;5035728;28;20123;-59
2021/07/11 10:43:40;;;;;;;11.82;7.10;;;25.60;80.60;;;;;;5054071;28;20040;-57
2021/07/11 10:46:06;;;;;;;7.57;6.80;;;25.70;80.70;;;;;;5052411;28;20041;-55
2021/07/11 10:48:32;;;;;;;7.82;7.03;;;25.80;80.10;;;;;;5051314;28;20116;-55
2021/07/11 10:50:59;;;;;;;7.80;7.13;;;25.60;79.10;;;;;;5044566;28;20075;-59
2021/07/11 10:53:35;;;;;;;7.55;6.78;;;25.40;79.70;;;;;;5052512;28;20078;-54
2021/07/11 10:56:02;;;;;;;8.35;7.30;;;25.30;79.90;;;;;;5035339;28;20098;-55
2021/07/11 10:58:38;;;;;;;7.70;7.05;;;25.40;80.10;;;;;;5034590;28;20018;-55
2021/07/11 11:01:18;;;;;;;7.75;6.93;;;25.50;79.50;;;;;;5049152;28;20497;-55
2021/07/11 11:03:49;;;;;;;7.82;7.03;;;25.60;79.70;;;;;;5031759;28;20489;-58
2021/07/11 11:06:18;;;;;;;7.40;6.80;;;25.50;78.80;;;;;;5037819;28;20025;-57
2021/07/11 11:08:45;;;;;;;8.38;7.00;;;25.40;79.40;;;;;;5016029;28;20034;-58
2021/07/11 11:11:11;;;;;;;7.93;7.13;;;25.60;79.20;;;;;;5037568;28;20025;-54
2021/07/11 11:13:37;;;;;;;7.28;6.68;;;25.60;78.50;;;;;;5031617;28;20029;-56
2021/07/11 11:16:20;;;;;;;8.20;7.38;;;25.70;78.50;;;;;;5031295;28;20032;-55
2021/07/11 11:18:53;;;;;;;8.48;7.65;;;25.50;78.50;;;;;;5034214;28;20082;-55
2021/07/11 11:21:21;;;;;;;10.75;8.80;;;25.60;79.20;;;;;;5031371;28;20094;-62
2021/07/11 11:23:49;;;;;;;10.02;7.88;;;25.80;79.00;;;;;;5032031;28;20141;-52
2021/07/11 11:26:29;;;;;;;8.38;7.35;;;25.80;78.60;;;;;;5034214;28;20116;-56
2021/07/11 11:28:56;;;;;;;8.23;7.53;;;25.60;78.40;;;;;;5031072;28;20033;-58
2021/07/11 11:31:27;;;;;;;9.05;7.13;;;25.60;78.40;;;;;;5013923;28;20430;-60
2021/07/11 11:33:56;;;;;;;9.48;8.57;;;25.60;78.80;;;;;;5031129;28;20034;-57
2021/07/11 11:36:25;;;;;;;11.80;10.80;;;25.70;79.30;;;;;;5031348;28;20390;-53
2021/07/11 11:38:51;;;;;;;8.70;7.93;;;25.70;79.30;;;;;;5031200;28;20030;-58
2021/07/11 11:41:19;;;;;;;9.25;8.32;;;25.90;79.50;;;;;;5032683;28;20110;-54
2021/07/11 11:43:47;;;;;;;7.50;6.90;;;25.90;78.70;;;;;;5035490;28;20409;-59
2021/07/11 11:46:28;;;;;;;9.57;7.43;;;25.60;79.00;;;;;;5036462;28;20124;-61
2021/07/11 11:49:02;;;;;;;8.95;8.15;;;25.70;79.10;;;;;;5036134;28;20120;-59
2021/07/11 11:51:29;;;;;;;8.20;7.40;;;25.80;79.30;;;;;;5019070;28;20045;-53
2021/07/11 11:53:55;;;;;;;7.95;7.25;;;25.70;78.70;;;;;;5050394;28;20484;-58
2021/07/11 11:56:21;;;;;;;7.80;7.10;;;25.70;78.20;;;;;;5046254;28;20056;-59
2021/07/11 11:58:47;;;;;;;7.35;6.75;;;25.80;78.80;;;;;;5031191;28;20033;-59
2021/07/11 12:01:15;;;;;;;8.75;7.20;;;25.90;78.80;;;;;;5030047;28;20044;-60
2021/07/11 12:03:43;;;;;;;8.05;7.38;;;25.90;78.10;;;;;;5031532;28;20065;-57
2021/07/11 12:06:15;;;;;;;7.72;6.93;;;26.00;77.20;;;;;;5030914;28;20035;-58
2021/07/11 12:08:46;;;;;;;8.25;7.43;;;25.90;78.30;;;;;;5013206;28;20037;-59
2021/07/11 12:11:13;;;;;;;7.63;6.93;;;25.90;78.50;;;;;;5036616;28;20099;-57
2021/07/11 12:13:40;;;;;;;8.05;7.30;;;25.70;77.90;;;;;;5050227;28;20548;-54
2021/07/11 12:16:12;;;;;;;8.25;7.35;;;25.70;78.50;;;;;;5047482;28;20025;-55
2021/07/11 12:18:51;;;;;;;8.00;7.30;;;25.60;79.20;;;;;;5032189;28;20044;-59
2021/07/11 12:21:22;;;;;;;7.72;7.03;;;25.60;79.20;;;;;;5048766;28;20040;-56
2021/07/11 12:24:11;;;;;;;7.70;7.00;;;25.50;79.10;;;;;;5047498;28;20052;-60
2021/07/11 12:26:46;;;;;;;7.95;7.25;;;25.40;78.50;;;;;;5050384;28;20029;-59
2021/07/11 12:29:19;;;;;;;7.68;6.97;;;25.40;79.40;;;;;;5050681;28;20029;-59
2021/07/11 12:31:46;;;;;;;7.80;7.10;;;25.30;79.00;;;;;;5050512;28;20024;-57
2021/07/11 12:34:17;;;;;;;7.78;6.63;;;25.30;79.50;;;;;;5030696;28;20060;-56
2021/07/11 12:36:57;;;;;;;7.75;7.05;;;25.50;78.90;;;;;;5049380;28;20052;-58
2021/07/11 12:39:26;;;;;;;8.30;7.50;;;25.60;78.80;;;;;;5049005;28;20041;-58